Latest Weather Observations for Point Fawcett

IDD60801

Issued at 10:35 pm CST Friday 28 November 2014 (issued every 30 minutes, with the page automatically refreshed every 10 minutes)

About weather observations | Map of weather stations | Latest weather observations for NT | Other Formats
Station Details ID: 200731 Name: POINT FAWCETT Lat: -11.76 Lon: 130.03 Height: 6.5 m
Data from the previous 72 hours. | See also: Recent months at Point Fawcett
Date/Time
CST
Temp
°C
App
Temp
°C
Dew
Point
Rel
Hum
%
Delta-T
°C
Wind Press
QNH
hPa
Press
MSL
hPa
Rain
since 9 am
mm
Dir
 
Spd
km/h
Gust
km/h
Spd
kts
Gust
kts
28/10:30pm 24.7 29.2 23.7 94 0.7 ESE 6 7 3 4 1009.1 - -
28/10:00pm 24.8 29.2 23.8 94 0.7 ESE 7 7 4 4 1009.0 - -
28/09:30pm 25.0 29.6 23.8 93 0.8 E 6 7 3 4 1008.6 - -
28/09:00pm 25.2 29.9 24.0 93 0.8 ESE 6 6 3 3 1008.4 1008.3 -
28/08:30pm 25.5 30.4 24.3 93 0.8 E 6 6 3 3 1008.0 - -
28/08:00pm 25.5 30.2 24.3 93 0.8 ESE 7 7 4 4 1007.5 - -
28/07:30pm 25.5 30.1 24.1 92 1.0 ESE 7 11 4 6 1007.2 - -
28/07:00pm 25.9 30.9 24.5 92 1.0 SE 6 7 3 4 1006.8 - -
28/06:30pm 25.9 30.7 24.5 92 1.0 SE 7 9 4 5 1006.7 - -
28/06:00pm 25.9 31.0 24.7 93 0.8 SE 6 9 3 5 1006.3 1006.2 -
28/05:30pm 25.4 29.2 24.0 92 1.0 SSE 11 17 6 9 1006.5 - -
28/05:00pm 25.3 29.1 23.5 90 1.2 SSE 9 15 5 8 1006.9 - -
28/04:30pm 27.2 31.1 24.8 87 1.7 SSE 13 24 7 13 1006.4 - -
28/04:00pm 27.5 32.3 25.1 87 1.7 S 9 17 5 9 1006.2 - -
28/03:30pm 28.0 32.9 25.2 85 2.0 S 9 13 5 7 1006.3 - -
28/03:00pm 28.0 32.9 25.2 85 2.0 S 9 13 5 7 1006.8 - -
28/02:30pm 29.2 33.3 25.2 79 2.8 SSW 13 20 7 11 1007.1 - -
28/02:00pm 29.7 34.7 25.4 78 3.0 S 9 13 5 7 1007.3 - -
28/01:30pm 29.4 34.9 26.2 83 2.3 SSE 9 15 5 8 1007.7 - -
28/01:00pm 27.4 33.0 25.4 89 1.4 SE 6 9 3 5 1008.4 - -
28/12:30pm 26.6 31.5 25.2 92 1.0 SE 9 11 5 6 1008.9 - -
28/12:00pm 25.8 30.1 24.2 91 1.1 ENE 9 13 5 7 1009.3 1009.2 -
28/11:30am 24.9 27.3 23.0 89 1.3 SE 15 24 8 13 1009.8 - -
28/11:00am 28.8 33.4 24.8 79 2.8 S 9 17 5 9 1010.4 - -
28/10:30am 30.3 34.6 24.2 70 4.2 WNW 9 13 5 7 1010.2 - -
28/10:00am 30.1 33.7 24.3 71 4.0 NW 13 17 7 9 1010.3 - -
28/09:30am 30.5 35.0 24.6 70 4.1 NW 9 15 5 8 1010.3 - -
28/09:00am 30.1 35.7 25.4 76 3.3 NE 6 9 3 5 1010.0 1009.9 -
28/08:30am 28.3 33.9 25.5 85 2.0 NE 6 9 3 5 1009.8 - -
28/08:00am 27.3 33.2 25.3 89 1.4 ESE 4 7 2 4 1009.8 - -
28/07:30am 26.6 32.0 25.2 92 1.0 NE 6 9 3 5 1009.7 - -
28/07:00am 25.8 30.7 24.6 93 0.8 ESE 7 9 4 5 1009.3 - -
28/06:30am 25.3 29.9 24.1 93 0.8 ESE 7 11 4 6 1009.0 - -
28/06:00am 25.1 29.4 23.7 92 1.0 SE 7 9 4 5 1008.8 1008.7 -
28/05:30am 25.2 29.5 23.6 91 1.1 ESE 7 7 4 4 1007.9 - -
28/05:00am 25.5 30.0 23.9 91 1.1 SE 7 9 4 5 1008.1 - -
28/04:30am 25.9 30.7 24.1 90 1.2 ESE 6 6 3 3 1007.7 - -
28/04:00am 26.2 32.1 24.1 88 1.4 CALM 0 0 0 0 1007.7 - -
28/03:30am 26.8 31.5 24.3 86 1.7 W 7 9 4 5 1007.5 - -
28/03:00am 26.4 31.5 24.6 90 1.3 W 6 13 3 7 1007.6 1007.5 -
28/02:30am 26.1 30.9 24.5 91 1.1 E 7 13 4 7 1007.8 - -
28/02:00am 25.9 30.7 24.5 92 1.0 ESE 7 9 4 5 1007.9 - -
28/01:30am 26.0 30.9 24.6 92 1.0 ESE 7 11 4 6 1008.2 - -
28/01:00am 25.9 30.7 24.5 92 1.0 ESE 7 9 4 5 1008.4 - -
28/12:30am 25.9 30.6 24.3 91 1.1 E 7 9 4 5 1008.6 - -
28/12:00am 26.1 30.8 24.3 90 1.2 E 7 9 4 5 1008.8 1008.7 -
 
Date/Time
CST
Temp
°C
App
Temp
°C
Dew
Point
Rel
Hum
%
Delta-T
°C
Wind Press
QNH
hPa
Press
MSL
hPa
Rain
since 9 am
mm
Dir
 
Spd
km/h
Gust
km/h
Spd
kts
Gust
kts
27/11:30pm 26.3 31.0 24.3 89 1.4 E 7 9 4 5 1008.8 - -
27/11:00pm 26.6 31.5 24.3 87 1.6 ENE 6 9 3 5 1009.1 - -
27/10:30pm 27.2 31.9 24.3 84 2.0 NE 7 11 4 6 1009.1 - -
27/10:00pm 27.2 31.7 23.9 82 2.3 NE 7 13 4 7 1009.0 - -
27/09:30pm 28.3 33.0 24.3 79 2.8 N 7 13 4 7 1008.7 - -
27/09:00pm 28.3 33.2 24.7 81 2.5 N 7 13 4 7 1008.7 1008.6 -
27/08:30pm 28.4 32.6 25.4 84 2.1 NNW 13 19 7 10 1008.3 - -
27/08:00pm 28.4 33.0 25.4 84 2.1 N 11 17 6 9 1008.0 - -
27/07:30pm 27.9 31.8 25.5 87 1.7 NNW 15 20 8 11 1007.7 - -
27/07:00pm 27.6 31.6 25.0 86 1.8 NNW 13 20 7 11 1007.4 - -
27/06:30pm 27.5 30.2 24.7 85 1.9 NNW 19 26 10 14 1007.4 - -
27/06:00pm 27.8 31.7 24.8 84 2.1 NW 13 17 7 9 1007.1 1007.0 -
27/05:30pm 28.8 31.4 23.9 75 3.4 NE 17 28 9 15 1006.9 - -
27/05:00pm 31.1 35.2 24.0 66 4.9 W 9 13 5 7 1006.6 - -
27/04:30pm 31.3 35.9 24.7 68 4.6 W 9 13 5 7 1006.2 - -
27/04:00pm 31.4 36.5 25.5 71 4.2 WSW 9 13 5 7 1006.3 - -
27/03:30pm 31.1 35.2 25.2 71 4.2 W 13 17 7 9 1006.4 - -
27/03:00pm 30.6 35.9 25.9 76 3.3 W 9 15 5 8 1006.8 1006.7 -
27/02:30pm 27.9 33.8 24.7 83 2.2 SSW 2 6 1 3 1007.2 - -
27/02:00pm 28.4 33.6 24.8 81 2.5 ESE 6 9 3 5 1007.5 - -
27/01:30pm 30.5 33.4 23.2 65 5.0 WSW 13 20 7 11 1007.4 - -
27/01:00pm 32.8 36.3 24.8 62 5.6 WSW 15 20 8 11 1007.6 - -
27/12:30pm 31.3 34.3 23.4 63 5.5 SW 13 17 7 9 1008.3 - -
27/12:00pm 32.3 35.9 24.3 62 5.6 SW 13 17 7 9 1008.7 1008.6 -
27/11:30am 31.3 35.0 23.9 64 5.1 SW 11 19 6 10 1009.0 - -
27/11:00am 31.4 35.4 23.8 64 5.3 WNW 9 11 5 6 1009.4 - -
27/10:30am 31.8 35.5 23.3 60 5.9 N 9 13 5 7 1009.6 - -
27/10:00am 31.9 35.9 23.7 62 5.7 N 9 13 5 7 1009.9 - -
27/09:30am 31.4 35.0 23.0 61 5.8 NNE 9 13 5 7 1010.0 - -
27/09:00am 30.9 34.6 23.3 64 5.2 NE 9 15 5 8 1009.7 1009.6 -
27/08:30am 30.1 33.6 23.5 67 4.6 E 11 15 6 8 1009.5 - -
27/08:00am 29.2 32.9 23.9 73 3.7 ENE 11 13 6 7 1009.2 - -
27/07:30am 27.5 31.6 23.9 81 2.5 E 9 13 5 7 1008.8 - -
27/07:00am 26.2 29.8 23.7 86 1.7 E 11 20 6 11 1008.3 - -
27/06:30am 25.8 29.8 23.7 88 1.4 E 9 13 5 7 1008.0 - -
27/06:00am 26.0 30.1 23.9 88 1.4 E 9 13 5 7 1007.8 1007.7 -
27/05:30am 26.1 30.6 24.0 88 1.4 E 7 13 4 7 1007.6 - -
27/05:00am 25.9 29.7 24.1 90 1.2 E 11 15 6 8 1007.2 - -
27/04:30am 25.8 30.3 24.6 93 0.8 E 9 13 5 7 1006.8 - -
27/04:00am 25.8 30.7 24.6 93 0.8 E 7 9 4 5 1006.8 - -
27/03:30am 25.9 30.8 24.7 93 0.8 ESE 7 7 4 4 1007.0 - -
27/03:00am 25.9 30.8 24.7 93 0.8 E 7 9 4 5 1007.0 1006.9 -
27/02:30am 25.9 30.7 24.5 92 1.0 E 7 9 4 5 1007.1 - -
27/02:00am 26.1 31.0 24.7 92 1.0 E 7 9 4 5 1007.4 - -
27/01:30am 25.9 30.7 24.5 92 1.0 E 7 9 4 5 1007.8 - -
27/01:00am 26.1 30.7 24.7 92 1.0 E 9 11 5 6 1008.0 - -
27/12:30am 25.7 30.0 24.3 92 1.0 ENE 9 11 5 6 1008.3 - -
27/12:00am 25.7 30.3 24.1 91 1.1 E 7 9 4 5 1008.4 1008.3 -
 
Date/Time
CST
Temp
°C
App
Temp
°C
Dew
Point
Rel
Hum
%
Delta-T
°C
Wind Press
QNH
hPa
Press
MSL
hPa
Rain
since 9 am
mm
Dir
 
Spd
km/h
Gust
km/h
Spd
kts
Gust
kts
26/11:30pm 26.1 30.7 24.1 89 1.4 NNE 7 11 4 6 1008.3 - -
26/11:00pm 26.6 31.4 24.1 86 1.7 ENE 6 7 3 4 1008.3 - -
26/10:30pm 27.9 32.0 24.5 82 2.4 NNE 11 17 6 9 1008.2 - -
26/10:00pm 27.2 30.9 24.6 86 1.8 N 13 19 7 10 1008.2 - -
26/09:30pm 25.9 30.7 24.5 92 1.0 NE 7 11 4 6 1007.8 - -
26/09:00pm 26.0 31.3 24.4 91 1.1 E 4 7 2 4 1007.6 1007.5 -
26/08:30pm 25.7 30.2 23.9 90 1.2 ENE 7 11 4 6 1007.1 - -
26/08:00pm 25.9 30.6 23.9 89 1.4 NE 6 7 3 4 1006.8 - -
26/07:30pm 26.4 30.9 23.9 86 1.7 NE 7 11 4 6 1006.5 - -
26/07:00pm 26.9 31.7 24.2 85 1.9 NE 6 7 3 4 1006.3 - -
26/06:30pm 27.4 31.2 24.0 82 2.3 NE 11 17 6 9 1005.9 - -
26/06:00pm 27.2 30.8 24.3 84 2.0 NNE 13 20 7 11 1005.8 1005.7 -
26/05:30pm 25.9 29.7 24.1 90 1.2 E 11 17 6 9 1005.9 - -
26/05:00pm 25.5 28.7 23.7 90 1.2 NE 13 20 7 11 1006.0 - -
26/04:30pm 25.6 29.1 23.5 88 1.4 E 11 22 6 12 1006.3 - -
26/04:00pm 27.1 27.8 21.6 72 3.7 ENE 20 43 11 23 1006.4 - -
26/03:30pm 30.7 34.4 24.6 70 4.3 W 13 15 7 8 1005.9 - -
26/03:00pm 28.5 33.8 25.9 86 1.8 WNW 9 13 5 7 1005.7 1005.6 -
26/02:30pm 30.3 35.4 24.9 73 3.8 W 7 11 4 6 1006.3 - -
26/02:00pm 32.4 35.9 23.6 59 6.1 W 11 15 6 8 1006.0 - -
26/01:30pm 33.1 37.5 25.1 63 5.7 WSW 11 17 6 9 1006.6 - -
26/01:00pm 30.6 34.7 24.5 70 4.3 SW 11 17 6 9 1007.0 - -
26/12:30pm 31.4 34.9 23.5 63 5.5 SW 11 15 6 8 1007.4 - -
26/12:00pm 31.6 35.7 24.5 66 5.0 W 11 15 6 8 1007.8 1007.7 -
26/11:30am 32.7 36.8 23.9 60 6.1 NNW 9 15 5 8 1008.2 - -
26/11:00am 33.3 37.2 24.2 59 6.4 N 11 15 6 8 1008.1 - -
26/10:30am 33.3 37.5 24.7 60 6.1 NNE 11 15 6 8 1008.4 - -
26/10:00am 31.8 36.7 25.2 68 4.7 NNE 9 13 5 7 1008.5 - -
26/09:30am 31.4 36.1 25.0 69 4.5 NNE 9 13 5 7 1008.5 - -
26/09:00am 31.0 36.3 25.8 74 3.7 NE 9 13 5 7 1008.5 1008.4 -
26/08:30am 29.1 34.8 25.9 83 2.3 ENE 7 11 4 6 1008.6 - -
26/08:00am 27.8 35.3 26.6 93 0.9 CALM 0 0 0 0 1008.3 - -
26/07:30am 27.0 32.8 26.1 95 0.6 E 7 9 4 5 1007.8 - -
26/07:00am 26.2 31.1 25.3 95 0.6 ENE 9 11 5 6 1007.3 - -
26/06:30am 25.0 29.5 24.0 94 0.7 ESE 7 9 4 5 1007.2 - -
26/06:00am 25.1 30.6 24.1 94 0.7 ESE 2 6 1 3 1006.9 1006.8 -
26/05:30am 25.7 30.6 24.7 94 0.7 E 7 9 4 5 1006.5 - -
26/05:00am 25.8 30.8 24.8 94 0.7 E 7 9 4 5 1006.2 - -
26/04:30am 25.7 30.3 24.7 94 0.7 ENE 9 11 5 6 1006.1 - -
26/04:00am 25.2 29.8 24.2 94 0.7 E 7 9 4 5 1006.3 - -
26/03:30am 24.7 28.9 23.5 93 0.8 ESE 7 9 4 5 1006.3 - -
26/03:00am 25.0 29.6 23.8 93 0.8 ESE 6 7 3 4 1006.2 1006.1 -
26/02:30am 25.1 29.6 23.9 93 0.8 ESE 7 9 4 5 1006.3 - -
26/02:00am 25.2 29.7 24.0 93 0.8 E 7 9 4 5 1006.1 - -
26/01:30am 25.0 29.4 23.8 93 0.8 E 7 11 4 6 1006.7 - -
26/01:00am 24.9 29.4 23.9 94 0.7 ESE 7 9 4 5 1007.0 - -
26/12:30am 25.0 29.4 23.8 93 0.8 E 7 9 4 5 1007.3 - -
26/12:00am 25.1 29.6 23.9 93 0.8 ESE 7 9 4 5 1007.8 1007.7 -
 
Date/Time
CST
Temp
°C
App
Temp
°C
Dew
Point
Rel
Hum
%
Delta-T
°C
Wind Press
QNH
hPa
Press
MSL
hPa
Rain
since 9 am
mm
Dir
 
Spd
km/h
Gust
km/h
Spd
kts
Gust
kts
25/11:30pm 25.0 29.6 23.8 93 0.8 ESE 6 9 3 5 1008.0 - -
25/11:00pm 25.1 30.8 23.7 92 1.0 CALM 0 0 0 0 1007.8 - -

Other Formats:

Comma delimited format used in spreadsheet applications
http://www.bom.gov.au/fwo/IDD60801/IDD60801.94122.axf

JavaScript Object Notation format (JSON) in row-major order
http://www.bom.gov.au/fwo/IDD60801/IDD60801.94122.json